Time;durP1;ratioP1;P1;durP2;ratioP2;P2;SDS_P1;SDS_P2;PMS_P1;PMS_P2;Temp;Humidity;BMP_temperature;BMP_pressure;BME280_temperature;BME280_humidity;BME280_pressure;Samples;Min_cycle;Max_cycle;Signal;HPM_P1;HPM_P2
2022/03/20 00:08:56;;;;;;;;;;;;;;;;;;;;;
2022/03/20 01:49:32;;;;;;;;;;;8.50;84.90;;;;;;6146557;23;20219;-84
2022/03/20 06:26:34;;;;;;;1031.10;360.75;;;13.20;68.20;;;;;;6182845;23;20383;-82
2022/03/20 06:29:06;;;;;;;1028.55;353.60;;;13.50;66.90;;;;;;6182007;23;20381;-81
2022/03/20 06:31:36;;;;;;;1025.85;355.65;;;13.70;66.80;;;;;;6243514;23;20366;-82
2022/03/20 06:34:23;;;;;;;1042.10;380.38;;;13.90;66.10;;;;;;6245081;23;20447;-81
2022/03/20 06:36:57;;;;;;;1038.40;380.98;;;14.30;65.00;;;;;;6244980;22;20354;-87
2022/03/20 06:39:26;;;;;;;1036.05;374.83;;;14.40;64.50;;;;;;6245019;23;20794;-82
2022/03/20 06:41:52;;;;;;;1033.68;372.60;;;14.70;64.10;;;;;;6245398;23;20369;-82
2022/03/20 06:44:19;;;;;;;1056.78;411.35;;;15.00;63.60;;;;;;6245379;23;20389;-91
2022/03/20 06:46:49;;;;;;;1043.40;395.80;;;15.60;62.80;;;;;;6245039;22;20362;-90
2022/03/20 06:50:02;;;;;;;1063.45;424.73;;;15.80;61.60;;;;;;6245156;23;20826;-83
2022/03/20 06:53:32;;;;;;;1041.43;397.38;;;15.90;61.10;;;;;;6179709;23;20472;-81
2022/03/20 06:55:55;;;;;;;1054.83;418.00;;;15.70;60.70;;;;;;6178322;23;20560;-90
2022/03/20 06:58:46;;;;;;;1052.65;420.67;;;16.40;60.60;;;;;;6243103;23;20707;-81
2022/03/20 07:01:31;;;;;;;1058.40;424.15;;;16.60;59.30;;;;;;6245123;23;20363;-87
2022/03/20 07:04:29;;;;;;;1057.20;420.35;;;16.70;58.50;;;;;;6244393;22;20428;-89
2022/03/20 07:06:59;;;;;;;1063.88;432.92;;;17.00;58.00;;;;;;6236366;22;20370;-85
2022/03/20 07:09:27;;;;;;;1069.75;441.40;;;17.30;57.40;;;;;;6245003;23;20354;-86
2022/03/20 07:12:04;;;;;;;1077.50;461.75;;;17.30;57.60;;;;;;6244923;23;20803;-81
2022/03/20 07:14:36;;;;;;;1076.88;460.05;;;17.80;56.70;;;;;;6244727;23;20354;-91
2022/03/20 07:17:19;;;;;;;1098.50;494.27;;;18.30;55.90;;;;;;6244458;22;20362;-81
2022/03/20 07:19:48;;;;;;;1110.63;519.10;;;18.30;56.20;;;;;;6217510;23;20397;-81
2022/03/20 07:22:19;;;;;;;1101.23;511.93;;;18.90;55.10;;;;;;6217955;23;20697;-81
2022/03/20 07:24:53;;;;;;;1136.40;556.72;;;19.00;54.40;;;;;;6217833;23;20381;-80
2022/03/20 07:30:15;;;;;;;1130.80;550.58;;;19.80;53.40;;;;;;6214266;23;20374;-81
2022/03/20 07:32:41;;;;;;;1150.60;577.60;;;19.70;52.40;;;;;;6213793;23;20384;-88
2022/03/20 07:35:10;;;;;;;1145.95;581.20;;;20.50;52.50;;;;;;6187628;23;20700;-89
2022/03/20 07:37:36;;;;;;;1146.65;588.83;;;21.00;50.90;;;;;;6187806;23;20374;-81
2022/03/20 07:40:03;;;;;;;1143.78;578.17;;;20.80;50.60;;;;;;6214531;23;20348;-90
2022/03/20 07:42:32;;;;;;;1144.63;576.67;;;20.60;51.00;;;;;;6214770;23;20809;-90
2022/03/20 07:45:03;;;;;;;1162.90;608.28;;;20.30;50.80;;;;;;6214055;23;20351;-81
2022/03/20 07:47:31;;;;;;;1156.07;593.08;;;20.50;51.50;;;;;;6214080;23;20364;-84
2022/03/20 07:49:57;;;;;;;1156.22;604.78;;;20.90;50.70;;;;;;6214190;23;20435;-86
2022/03/20 07:52:22;;;;;;;1165.53;622.42;;;21.40;50.30;;;;;;6213925;23;20465;-80
2022/03/20 07:54:49;;;;;;;1165.20;620.17;;;21.50;49.80;;;;;;6213937;23;20360;-82
2022/03/20 07:57:14;;;;;;;1185.03;657.85;;;22.00;49.70;;;;;;6213681;23;20450;-82
2022/03/20 07:59:42;;;;;;;1202.87;692.30;;;22.70;49.00;;;;;;6213882;23;20391;-81
2022/03/20 08:02:08;;;;;;;1184.27;667.83;;;23.70;47.80;;;;;;6214352;23;20757;-90
2022/03/20 08:04:34;;;;;;;1178.63;674.53;;;23.10;47.70;;;;;;6213966;23;20418;-81
2022/03/20 08:07:00;;;;;;;1179.72;668.47;;;23.10;47.50;;;;;;6187549;23;20421;-82
2022/03/20 08:09:43;;;;;;;1174.30;653.00;;;22.90;47.80;;;;;;6214133;23;20808;-81
2022/03/20 08:12:12;;;;;;;1165.13;637.22;;;22.40;47.70;;;;;;6187237;23;20368;-88
2022/03/20 08:14:39;;;;;;;1195.88;677.78;;;22.10;47.70;;;;;;6186720;23;20378;-92
2022/03/20 08:17:08;;;;;;;1187.70;668.42;;;22.80;47.50;;;;;;6187244;23;20735;-90
2022/03/20 08:19:35;;;;;;;1183.28;667.00;;;23.40;47.10;;;;;;6214002;23;20434;-81
2022/03/20 08:22:05;;;;;;;1178.40;656.13;;;22.70;46.40;;;;;;6213703;23;20356;-82
2022/03/20 08:24:31;;;;;;;1187.63;669.00;;;22.30;47.00;;;;;;6187163;23;20839;-88
2022/03/20 08:26:57;;;;;;;1206.32;701.65;;;22.90;46.40;;;;;;6213598;23;20801;-81
2022/03/20 08:29:31;;;;;;;1196.65;692.35;;;23.40;46.50;;;;;;6239148;23;20374;-82
2022/03/20 08:31:57;;;;;;;1188.40;685.83;;;23.70;45.60;;;;;;6243132;23;20358;-82
2022/03/20 08:34:23;;;;;;;1223.13;747.28;;;24.10;45.00;;;;;;6243355;23;20810;-81
2022/03/20 08:36:51;;;;;;;1245.83;781.00;;;25.10;44.20;;;;;;6244019;22;20368;-81
2022/03/20 08:39:17;;;;;;;1236.13;777.58;;;25.50;44.30;;;;;;6242457;23;20378;-82
2022/03/20 08:42:11;;;;;;;1285.65;854.30;;;26.40;43.20;;;;;;6243923;23;20365;-84
2022/03/20 08:44:53;;;;;;;1268.97;840.05;;;26.70;42.40;;;;;;6179192;23;20370;-83
2022/03/20 08:48:21;;;;;;;1264.53;822.50;;;26.80;41.20;;;;;;6215233;23;20398;-84
2022/03/20 08:51:46;;;;;;;;;;;;;;;;;;;;;
2022/03/20 08:58:04;;;;;;;;;;;;;;;;;;;;;
2022/03/20 09:00:57;;;;;;;1273.73;844.07;;;26.20;40.60;;;;;;6193117;23;20436;-86
2022/03/20 09:03:23;;;;;;;1265.13;820.97;;;26.10;40.30;;;;;;6202878;23;20381;-82
2022/03/20 09:05:49;;;;;;;1308.82;864.53;;;24.50;39.10;;;;;;6243026;22;20358;-81
2022/03/20 09:08:18;;;;;;;1285.88;809.38;;;21.80;40.40;;;;;;6244051;23;20385;-87
2022/03/20 09:11:12;;;;;;;1280.00;789.42;;;20.00;41.80;;;;;;6243535;23;20353;-87
2022/03/20 09:13:41;;;;;;;1267.30;758.97;;;18.80;43.20;;;;;;6245674;23;20413;-89
2022/03/20 09:19:36;;;;;;;1294.70;853.22;;;18.00;44.30;;;;;;6243411;23;20357;-82
2022/03/20 09:22:50;;;;;;;1301.72;791.75;;;17.80;44.10;;;;;;6242617;23;20440;-86
2022/03/20 09:28:24;;;;;;;1196.47;612.53;;;16.60;45.70;;;;;;6149988;23;20386;-81
2022/03/20 09:34:15;;;;;;;1206.72;610.92;;;16.10;45.40;;;;;;6180361;23;20554;-81
2022/03/20 09:36:53;;;;;;;1235.07;646.28;;;16.20;46.70;;;;;;6180909;23;20436;-84
2022/03/20 09:39:38;;;;;;;;;;;;;;;;;;;;;
2022/03/20 09:42:41;;;;;;;1244.32;654.30;;;16.10;47.50;;;;;;6242179;23;20502;-86
2022/03/20 09:45:11;;;;;;;1219.32;611.35;;;16.10;47.50;;;;;;6242038;23;20440;-80
2022/03/20 09:48:18;;;;;;;1133.97;703.53;;;16.00;47.80;;;;;;6243205;23;20368;-80
2022/03/20 09:51:34;;;;;;;1213.70;674.85;;;16.20;47.60;;;;;;6243075;23;20358;-81
2022/03/20 09:54:04;;;;;;;1234.20;650.60;;;16.00;47.70;;;;;;6243198;23;20382;-89
2022/03/20 10:04:18;;;;;;;1242.90;643.53;;;15.30;48.40;;;;;;6231532;23;20783;-82
2022/03/20 10:06:47;;;;;;;1244.45;655.22;;;15.80;48.50;;;;;;6230472;22;20748;-81
2022/03/20 10:09:38;;;;;;;1219.72;666.40;;;16.10;47.60;;;;;;6217196;23;20415;-81
2022/03/20 10:12:43;;;;;;;818.60;729.73;;;16.10;47.00;;;;;;6242801;22;20849;-81
2022/03/20 10:15:58;;;;;;;952.45;691.13;;;16.00;47.40;;;;;;6242199;23;20679;-81
2022/03/20 10:18:41;;;;;;;778.40;698.45;;;16.00;47.50;;;;;;6243116;23;20441;-81
2022/03/20 10:21:54;;;;;;;769.00;690.65;;;16.00;47.90;;;;;;6242983;23;20354;-82
2022/03/20 10:25:12;;;;;;;606.38;550.20;;;16.00;48.10;;;;;;6215132;23;20366;-82
2022/03/20 10:28:25;;;;;;;1116.97;495.23;;;16.10;47.80;;;;;;6112601;23;20373;-81
2022/03/20 10:31:05;;;;;;;1172.40;648.22;;;16.00;48.00;;;;;;6120893;23;20388;-82
2022/03/20 10:33:33;;;;;;;893.90;694.28;;;16.10;48.00;;;;;;6120828;23;20463;-82
2022/03/20 10:36:30;;;;;;;1071.78;674.65;;;16.50;48.00;;;;;;6120593;23;20452;-80
2022/03/20 10:39:42;;;;;;;1045.43;690.75;;;16.60;47.60;;;;;;6119081;23;20406;-80
2022/03/20 10:42:20;;;;;;;1102.43;670.10;;;16.60;47.60;;;;;;6098413;23;20809;-89
2022/03/20 10:44:49;;;;;;;1153.63;647.15;;;16.60;47.70;;;;;;6184899;23;20760;-88
2022/03/20 10:47:45;;;;;;;1030.75;661.90;;;16.20;47.50;;;;;;6247400;22;20338;-81
2022/03/20 10:53:33;;;;;;;942.78;666.80;;;16.00;47.40;;;;;;6243857;22;20400;-86
2022/03/20 10:56:08;;;;;;;1023.87;638.40;;;15.90;47.80;;;;;;6246384;22;20811;-80
2022/03/20 10:58:39;;;;;;;923.10;657.22;;;15.90;48.60;;;;;;6245183;23;20366;-81
2022/03/20 11:01:12;;;;;;;1087.18;639.47;;;15.90;47.30;;;;;;6244843;23;20358;-81
2022/03/20 11:07:23;;;;;;;930.22;671.88;;;15.90;48.10;;;;;;6244735;22;20369;-81
2022/03/20 11:13:18;;;;;;;824.60;686.22;;;16.20;47.90;;;;;;6244404;23;20404;-81
2022/03/20 11:16:24;;;;;;;925.25;693.60;;;16.30;47.50;;;;;;6244314;22;20871;-81
2022/03/20 11:19:43;;;;;;;933.83;676.85;;;16.10;47.60;;;;;;6244254;23;20798;-82
2022/03/20 11:23:04;;;;;;;957.20;661.28;;;15.80;47.40;;;;;;6244532;23;20349;-81
2022/03/20 11:28:58;;;;;;;940.30;687.30;;;15.50;48.00;;;;;;6111453;23;20381;-81
2022/03/20 11:32:39;;;;;;;930.90;688.38;;;15.70;48.20;;;;;;6238923;23;20791;-81
2022/03/20 11:45:49;;;;;;;;;;;;;;;;;;;;;
2022/03/20 11:49:24;;;;;;;740.47;664.92;;;15.30;47.40;;;;;;6226739;23;20453;-81
2022/03/20 11:59:20;;;;;;;720.67;649.05;;;15.40;46.40;;;;;;6244903;23;20718;-80
2022/03/20 12:16:13;;;;;;;;;;;;;;;;;;;;;
2022/03/20 12:35:47;;;;;;;433.52;399.48;;;14.90;46.70;;;;;;5714561;24;20389;-81
2022/03/20 12:38:46;;;;;;;412.88;381.70;;;15.10;46.70;;;;;;5880500;24;20491;-81
2022/03/20 12:41:35;;;;;;;219.68;203.60;;;15.20;46.20;;;;;;6229748;23;20374;-81
2022/03/20 12:44:07;;;;;;;159.57;147.53;;;15.00;46.30;;;;;;6242589;23;20480;-81
2022/03/20 12:50:28;;;;;;;196.85;182.20;;;15.00;45.80;;;;;;6092507;23;20362;-81
2022/03/20 12:53:34;;;;;;;391.92;363.00;;;14.90;46.60;;;;;;6092684;23;20398;-80
2022/03/20 12:58:47;;;;;;;438.48;404.42;;;14.90;46.70;;;;;;6093658;23;20366;-81
2022/03/20 13:01:17;;;;;;;522.17;476.05;;;14.80;46.20;;;;;;6198844;23;20373;-81
2022/03/20 13:04:12;;;;;;;504.67;461.30;;;14.80;47.00;;;;;;6216390;23;20424;-81
2022/03/20 13:06:39;;;;;;;552.42;500.90;;;14.80;46.70;;;;;;6243790;22;20380;-80
2022/03/20 13:13:06;;;;;;;431.73;398.00;;;14.70;46.10;;;;;;6181599;23;20484;-87
2022/03/20 13:19:43;;;;;;;;;;;;;;;;;;;;;
2022/03/20 13:22:12;;;;;;;133.23;122.65;;;14.70;46.90;;;;;;6131460;23;20852;-80
2022/03/20 13:25:10;;;;;;;131.40;121.13;;;14.70;47.50;;;;;;6217278;23;20377;-81
2022/03/20 13:27:43;;;;;;;479.52;437.70;;;14.70;47.30;;;;;;6243893;23;20656;-81
2022/03/20 13:47:39;;;;;;;383.52;353.05;;;14.20;48.40;;;;;;6091280;23;20370;-80
2022/03/20 14:01:33;;;;;;;;;;;;;;;;;;;;;
2022/03/20 14:21:50;;;;;;;295.15;274.35;;;14.60;47.50;;;;;;6063938;23;20981;-81
2022/03/20 14:53:30;;;;;;;336.23;311.53;;;13.70;47.60;;;;;;6065491;23;20395;-80
2022/03/20 14:56:20;;;;;;;292.70;271.88;;;13.60;48.10;;;;;;6064840;23;20375;-81
2022/03/20 15:48:59;;;;;;;519.60;465.90;;;13.10;49.80;;;;;;6207020;23;20363;-86
2022/03/20 15:52:06;;;;;;;;;;;;;;;;;;;;;
2022/03/20 15:54:58;;;;;;;;;;;;;;;;;;;;;
2022/03/20 18:00:27;;;;;;;47.88;42.80;;;10.60;52.40;;;;;;6064735;23;20386;-81
2022/03/20 18:09:53;;;;;;;;;;;;;;;;;;;;;
2022/03/20 18:23:11;;;;;;;87.32;78.97;;;10.50;52.30;;;;;;6115415;23;20734;-82
2022/03/20 20:08:32;;;;;;;;;;;;;;;;;;;;;
2022/03/20 20:41:46;;;;;;;98.35;90.20;;;9.00;55.20;;;;;;6044556;23;20964;-84
2022/03/20 21:51:20;;;;;;;22.17;14.00;;;8.50;55.90;;;;;;6061357;23;20868;-82
2022/03/20 22:02:19;;;;;;;41.28;34.50;;;8.50;55.90;;;;;;5977034;24;20377;-82
2022/03/20 22:08:17;;;;;;;;;;;;;;;;;;;;;
2022/03/20 22:14:35;;;;;;;32.83;29.42;;;8.40;56.10;;;;;;6208417;23;20396;-84
2022/03/20 22:21:25;;;;;;;;;;;;;;;;;;;;;
2022/03/20 22:32:06;;;;;;;19.42;15.05;;;8.30;56.30;;;;;;5919852;24;20379;-85
2022/03/20 22:42:02;;;;;;;;;;;;;;;;;;;;;
2022/03/20 23:08:32;;;;;;;37.33;31.60;;;8.00;56.60;;;;;;5949298;23;20803;-82
2022/03/20 23:11:50;;;;;;;46.58;41.55;;;8.00;56.60;;;;;;5982678;23;20398;-84
2022/03/20 23:18:59;;;;;;;;;;;;;;;;;;;;;
2022/03/20 23:28:48;;;;;;;55.78;50.47;;;7.80;57.20;;;;;;6063901;23;20367;-85
2022/03/20 23:31:56;;;;;;;30.15;23.92;;;7.80;57.20;;;;;;6062148;23;20380;-81
2022/03/20 23:58:51;;;;;;;46.42;41.58;;;7.70;57.60;;;;;;6006953;23;20997;-83
